sensor_id;sensor_type;location;lat;lon;timestamp;P1;durP1;ratioP1;P2;durP2;ratioP2
9716;SDS011;4897;43.570;27.832;2022-08-19T00:00:42;14.95;;;8.27;;
9716;SDS011;4897;43.570;27.832;2022-08-19T00:03:09;11.02;;;8.45;;
9716;SDS011;4897;43.570;27.832;2022-08-19T00:05:36;10.65;;;7.53;;
9716;SDS011;4897;43.570;27.832;2022-08-19T00:08:07;11.43;;;8.18;;
9716;SDS011;4897;43.570;27.832;2022-08-19T00:10:36;11.27;;;8.00;;
9716;SDS011;4897;43.570;27.832;2022-08-19T00:13:03;16.45;;;7.32;;
9716;SDS011;4897;43.570;27.832;2022-08-19T00:15:30;10.82;;;7.15;;
9716;SDS011;4897;43.570;27.832;2022-08-19T00:17:59;9.55;;;6.90;;
9716;SDS011;4897;43.570;27.832;2022-08-19T00:20:26;13.95;;;7.85;;
9716;SDS011;4897;43.570;27.832;2022-08-19T00:22:53;8.52;;;7.10;;
9716;SDS011;4897;43.570;27.832;2022-08-19T00:25:24;11.10;;;7.40;;
9716;SDS011;4897;43.570;27.832;2022-08-19T00:27:51;11.27;;;7.43;;
9716;SDS011;4897;43.570;27.832;2022-08-19T00:30:18;9.77;;;7.55;;
9716;SDS011;4897;43.570;27.832;2022-08-19T00:32:45;10.13;;;7.03;;
9716;SDS011;4897;43.570;27.832;2022-08-19T00:35:16;11.50;;;7.15;;
9716;SDS011;4897;43.570;27.832;2022-08-19T00:37:47;9.40;;;7.45;;
9716;SDS011;4897;43.570;27.832;2022-08-19T00:40:16;13.88;;;7.32;;
9716;SDS011;4897;43.570;27.832;2022-08-19T00:42:46;10.15;;;7.07;;
9716;SDS011;4897;43.570;27.832;2022-08-19T00:45:19;8.60;;;6.95;;
9716;SDS011;4897;43.570;27.832;2022-08-19T00:47:47;9.15;;;6.93;;
9716;SDS011;4897;43.570;27.832;2022-08-19T00:50:19;11.93;;;7.65;;
9716;SDS011;4897;43.570;27.832;2022-08-19T00:52:49;10.07;;;7.32;;
9716;SDS011;4897;43.570;27.832;2022-08-19T00:55:17;13.57;;;7.18;;
9716;SDS011;4897;43.570;27.832;2022-08-19T00:57:56;9.45;;;7.75;;
9716;SDS011;4897;43.570;27.832;2022-08-19T01:00:25;12.02;;;7.13;;
9716;SDS011;4897;43.570;27.832;2022-08-19T01:02:54;11.13;;;7.97;;
9716;SDS011;4897;43.570;27.832;2022-08-19T01:05:22;15.85;;;8.00;;
9716;SDS011;4897;43.570;27.832;2022-08-19T01:07:52;16.35;;;7.88;;
9716;SDS011;4897;43.570;27.832;2022-08-19T01:10:23;13.93;;;7.35;;
9716;SDS011;4897;43.570;27.832;2022-08-19T01:12:53;10.38;;;8.13;;
9716;SDS011;4897;43.570;27.832;2022-08-19T01:15:25;7.95;;;6.85;;
9716;SDS011;4897;43.570;27.832;2022-08-19T01:17:56;10.07;;;8.07;;
9716;SDS011;4897;43.570;27.832;2022-08-19T01:20:25;9.73;;;7.70;;
9716;SDS011;4897;43.570;27.832;2022-08-19T01:22:58;13.77;;;8.23;;
9716;SDS011;4897;43.570;27.832;2022-08-19T01:25:29;10.57;;;7.57;;
9716;SDS011;4897;43.570;27.832;2022-08-19T01:28:02;12.68;;;8.00;;
9716;SDS011;4897;43.570;27.832;2022-08-19T01:30:30;8.90;;;7.40;;
9716;SDS011;4897;43.570;27.832;2022-08-19T01:32:59;9.23;;;7.65;;
9716;SDS011;4897;43.570;27.832;2022-08-19T01:35:27;8.57;;;7.63;;
9716;SDS011;4897;43.570;27.832;2022-08-19T01:38:00;14.00;;;7.45;;
9716;SDS011;4897;43.570;27.832;2022-08-19T01:40:32;14.25;;;8.40;;
9716;SDS011;4897;43.570;27.832;2022-08-19T01:43:02;11.90;;;8.57;;
9716;SDS011;4897;43.570;27.832;2022-08-19T01:45:33;10.38;;;8.10;;
9716;SDS011;4897;43.570;27.832;2022-08-19T01:48:01;14.38;;;7.75;;
9716;SDS011;4897;43.570;27.832;2022-08-19T01:50:32;10.80;;;8.13;;
9716;SDS011;4897;43.570;27.832;2022-08-19T01:53:02;11.88;;;8.32;;
9716;SDS011;4897;43.570;27.832;2022-08-19T01:55:33;10.77;;;8.07;;
9716;SDS011;4897;43.570;27.832;2022-08-19T01:58:03;10.02;;;7.95;;
9716;SDS011;4897;43.570;27.832;2022-08-19T02:00:35;11.82;;;8.23;;
9716;SDS011;4897;43.570;27.832;2022-08-19T02:03:02;10.13;;;7.82;;
9716;SDS011;4897;43.570;27.832;2022-08-19T02:05:31;11.90;;;8.45;;
9716;SDS011;4897;43.570;27.832;2022-08-19T02:07:58;9.07;;;7.57;;
9716;SDS011;4897;43.570;27.832;2022-08-19T02:10:26;16.50;;;8.55;;
9716;SDS011;4897;43.570;27.832;2022-08-19T02:12:53;12.77;;;8.05;;
9716;SDS011;4897;43.570;27.832;2022-08-19T02:15:20;12.90;;;8.20;;
9716;SDS011;4897;43.570;27.832;2022-08-19T02:17:48;9.65;;;7.82;;
9716;SDS011;4897;43.570;27.832;2022-08-19T02:20:15;13.57;;;8.05;;
9716;SDS011;4897;43.570;27.832;2022-08-19T02:22:42;11.10;;;8.20;;
9716;SDS011;4897;43.570;27.832;2022-08-19T02:25:10;11.00;;;8.05;;
9716;SDS011;4897;43.570;27.832;2022-08-19T02:27:39;11.80;;;7.53;;
9716;SDS011;4897;43.570;27.832;2022-08-19T02:30:10;10.57;;;8.40;;
9716;SDS011;4897;43.570;27.832;2022-08-19T02:32:41;9.45;;;7.40;;
9716;SDS011;4897;43.570;27.832;2022-08-19T02:35:09;11.82;;;8.00;;
9716;SDS011;4897;43.570;27.832;2022-08-19T02:37:37;11.00;;;8.15;;
9716;SDS011;4897;43.570;27.832;2022-08-19T02:40:24;11.55;;;8.45;;
9716;SDS011;4897;43.570;27.832;2022-08-19T02:42:53;9.45;;;7.93;;
9716;SDS011;4897;43.570;27.832;2022-08-19T02:45:21;9.50;;;8.10;;
9716;SDS011;4897;43.570;27.832;2022-08-19T02:47:48;12.02;;;8.15;;
9716;SDS011;4897;43.570;27.832;2022-08-19T02:50:15;10.27;;;8.30;;
9716;SDS011;4897;43.570;27.832;2022-08-19T02:52:42;11.18;;;8.57;;
9716;SDS011;4897;43.570;27.832;2022-08-19T02:55:10;13.02;;;8.40;;
9716;SDS011;4897;43.570;27.832;2022-08-19T02:57:39;10.40;;;7.57;;
9716;SDS011;4897;43.570;27.832;2022-08-19T03:00:08;11.13;;;7.57;;
9716;SDS011;4897;43.570;27.832;2022-08-19T03:02:37;9.93;;;8.15;;
9716;SDS011;4897;43.570;27.832;2022-08-19T03:05:05;9.68;;;8.30;;
9716;SDS011;4897;43.570;27.832;2022-08-19T03:07:35;9.43;;;7.88;;
9716;SDS011;4897;43.570;27.832;2022-08-19T03:10:02;9.57;;;7.95;;
9716;SDS011;4897;43.570;27.832;2022-08-19T03:12:29;14.55;;;8.55;;
9716;SDS011;4897;43.570;27.832;2022-08-19T03:14:56;13.45;;;9.10;;
9716;SDS011;4897;43.570;27.832;2022-08-19T03:17:24;12.20;;;8.15;;
9716;SDS011;4897;43.570;27.832;2022-08-19T03:19:51;9.95;;;8.20;;
9716;SDS011;4897;43.570;27.832;2022-08-19T03:22:21;13.45;;;8.05;;
9716;SDS011;4897;43.570;27.832;2022-08-19T03:24:48;14.77;;;9.13;;
9716;SDS011;4897;43.570;27.832;2022-08-19T03:27:15;13.65;;;8.40;;
9716;SDS011;4897;43.570;27.832;2022-08-19T03:29:42;10.60;;;8.45;;
9716;SDS011;4897;43.570;27.832;2022-08-19T03:32:09;10.85;;;8.43;;
9716;SDS011;4897;43.570;27.832;2022-08-19T03:34:42;14.43;;;8.90;;
9716;SDS011;4897;43.570;27.832;2022-08-19T03:37:10;10.38;;;8.80;;
9716;SDS011;4897;43.570;27.832;2022-08-19T03:39:38;10.95;;;7.95;;
9716;SDS011;4897;43.570;27.832;2022-08-19T03:42:07;10.38;;;8.38;;
9716;SDS011;4897;43.570;27.832;2022-08-19T03:44:34;14.98;;;8.07;;
9716;SDS011;4897;43.570;27.832;2022-08-19T03:47:03;12.00;;;9.15;;
9716;SDS011;4897;43.570;27.832;2022-08-19T03:49:31;9.88;;;8.48;;
9716;SDS011;4897;43.570;27.832;2022-08-19T03:52:01;10.85;;;9.07;;
9716;SDS011;4897;43.570;27.832;2022-08-19T03:54:32;16.38;;;8.73;;
9716;SDS011;4897;43.570;27.832;2022-08-19T03:56:59;15.52;;;9.75;;
9716;SDS011;4897;43.570;27.832;2022-08-19T03:59:27;14.38;;;8.85;;
9716;SDS011;4897;43.570;27.832;2022-08-19T04:01:57;12.73;;;8.68;;
9716;SDS011;4897;43.570;27.832;2022-08-19T04:04:27;12.02;;;8.60;;
9716;SDS011;4897;43.570;27.832;2022-08-19T04:06:55;11.55;;;8.50;;
9716;SDS011;4897;43.570;27.832;2022-08-19T04:09:26;12.77;;;8.70;;
9716;SDS011;4897;43.570;27.832;2022-08-19T04:11:54;11.85;;;8.70;;
9716;SDS011;4897;43.570;27.832;2022-08-19T04:14:25;11.05;;;8.35;;
9716;SDS011;4897;43.570;27.832;2022-08-19T04:16:57;14.45;;;9.02;;
9716;SDS011;4897;43.570;27.832;2022-08-19T04:19:25;11.30;;;8.85;;
9716;SDS011;4897;43.570;27.832;2022-08-19T04:21:52;13.02;;;8.77;;
9716;SDS011;4897;43.570;27.832;2022-08-19T04:24:21;12.63;;;7.93;;
9716;SDS011;4897;43.570;27.832;2022-08-19T04:26:49;11.73;;;8.27;;
9716;SDS011;4897;43.570;27.832;2022-08-19T04:29:17;10.52;;;7.70;;
9716;SDS011;4897;43.570;27.832;2022-08-19T04:31:47;13.55;;;8.38;;
9716;SDS011;4897;43.570;27.832;2022-08-19T04:34:18;12.60;;;8.35;;
9716;SDS011;4897;43.570;27.832;2022-08-19T04:36:49;12.63;;;8.48;;
9716;SDS011;4897;43.570;27.832;2022-08-19T04:39:18;12.07;;;7.65;;
9716;SDS011;4897;43.570;27.832;2022-08-19T04:41:47;9.73;;;7.53;;
9716;SDS011;4897;43.570;27.832;2022-08-19T04:44:33;14.05;;;8.30;;
9716;SDS011;4897;43.570;27.832;2022-08-19T04:47:01;9.50;;;8.00;;
9716;SDS011;4897;43.570;27.832;2022-08-19T04:49:30;15.52;;;8.52;;
9716;SDS011;4897;43.570;27.832;2022-08-19T04:51:58;10.98;;;8.52;;
9716;SDS011;4897;43.570;27.832;2022-08-19T04:54:25;11.63;;;8.30;;
9716;SDS011;4897;43.570;27.832;2022-08-19T04:56:52;10.10;;;8.10;;
9716;SDS011;4897;43.570;27.832;2022-08-19T04:59:20;13.23;;;8.38;;
9716;SDS011;4897;43.570;27.832;2022-08-19T05:01:48;9.85;;;7.63;;
9716;SDS011;4897;43.570;27.832;2022-08-19T05:04:16;15.90;;;8.13;;
9716;SDS011;4897;43.570;27.832;2022-08-19T05:06:47;9.05;;;7.13;;
9716;SDS011;4897;43.570;27.832;2022-08-19T05:09:19;11.43;;;6.93;;
9716;SDS011;4897;43.570;27.832;2022-08-19T05:11:46;9.98;;;7.50;;
9716;SDS011;4897;43.570;27.832;2022-08-19T05:14:16;10.25;;;8.48;;
9716;SDS011;4897;43.570;27.832;2022-08-19T05:16:44;10.05;;;7.93;;
9716;SDS011;4897;43.570;27.832;2022-08-19T05:19:14;11.80;;;7.45;;
9716;SDS011;4897;43.570;27.832;2022-08-19T05:21:59;9.18;;;7.38;;
9716;SDS011;4897;43.570;27.832;2022-08-19T05:24:43;12.45;;;7.43;;
9716;SDS011;4897;43.570;27.832;2022-08-19T05:27:10;8.55;;;7.43;;
9716;SDS011;4897;43.570;27.832;2022-08-19T05:29:38;10.52;;;7.85;;
9716;SDS011;4897;43.570;27.832;2022-08-19T05:32:06;8.30;;;6.85;;
9716;SDS011;4897;43.570;27.832;2022-08-19T05:34:35;12.43;;;7.03;;
9716;SDS011;4897;43.570;27.832;2022-08-19T05:37:07;9.02;;;7.18;;
9716;SDS011;4897;43.570;27.832;2022-08-19T05:39:35;8.27;;;6.97;;
9716;SDS011;4897;43.570;27.832;2022-08-19T05:42:10;8.75;;;7.43;;
9716;SDS011;4897;43.570;27.832;2022-08-19T05:44:39;8.10;;;7.10;;
9716;SDS011;4897;43.570;27.832;2022-08-19T05:47:09;12.60;;;7.10;;
9716;SDS011;4897;43.570;27.832;2022-08-19T05:49:41;8.88;;;7.13;;
9716;SDS011;4897;43.570;27.832;2022-08-19T05:52:09;11.20;;;7.93;;
9716;SDS011;4897;43.570;27.832;2022-08-19T05:54:39;10.65;;;7.43;;
9716;SDS011;4897;43.570;27.832;2022-08-19T05:57:06;11.18;;;7.40;;
9716;SDS011;4897;43.570;27.832;2022-08-19T05:59:34;13.55;;;7.35;;
9716;SDS011;4897;43.570;27.832;2022-08-19T06:02:04;15.40;;;7.60;;
9716;SDS011;4897;43.570;27.832;2022-08-19T06:04:32;10.02;;;6.97;;
9716;SDS011;4897;43.570;27.832;2022-08-19T06:07:01;9.10;;;6.63;;
9716;SDS011;4897;43.570;27.832;2022-08-19T06:09:32;12.02;;;7.13;;
9716;SDS011;4897;43.570;27.832;2022-08-19T06:12:08;14.00;;;7.20;;
9716;SDS011;4897;43.570;27.832;2022-08-19T06:14:37;16.15;;;6.93;;
9716;SDS011;4897;43.570;27.832;2022-08-19T06:17:06;12.25;;;6.70;;
9716;SDS011;4897;43.570;27.832;2022-08-19T06:19:33;14.43;;;6.15;;
9716;SDS011;4897;43.570;27.832;2022-08-19T06:22:03;10.50;;;7.05;;
9716;SDS011;4897;43.570;27.832;2022-08-19T06:24:31;9.13;;;6.72;;
9716;SDS011;4897;43.570;27.832;2022-08-19T06:26:59;9.38;;;7.05;;
9716;SDS011;4897;43.570;27.832;2022-08-19T06:29:26;7.88;;;6.35;;
9716;SDS011;4897;43.570;27.832;2022-08-19T06:31:55;13.23;;;6.55;;
9716;SDS011;4897;43.570;27.832;2022-08-19T06:34:23;11.02;;;6.32;;
9716;SDS011;4897;43.570;27.832;2022-08-19T06:36:52;8.75;;;6.72;;
9716;SDS011;4897;43.570;27.832;2022-08-19T06:39:22;8.43;;;6.93;;
9716;SDS011;4897;43.570;27.832;2022-08-19T06:41:52;12.35;;;7.03;;
9716;SDS011;4897;43.570;27.832;2022-08-19T06:44:21;12.90;;;7.10;;
9716;SDS011;4897;43.570;27.832;2022-08-19T06:46:50;9.05;;;6.70;;
9716;SDS011;4897;43.570;27.832;2022-08-19T06:49:17;10.32;;;6.68;;
9716;SDS011;4897;43.570;27.832;2022-08-19T06:51:45;10.52;;;6.60;;
9716;SDS011;4897;43.570;27.832;2022-08-19T06:54:15;10.38;;;6.75;;
9716;SDS011;4897;43.570;27.832;2022-08-19T06:56:45;9.27;;;6.35;;
9716;SDS011;4897;43.570;27.832;2022-08-19T06:59:12;7.28;;;6.22;;
9716;SDS011;4897;43.570;27.832;2022-08-19T07:01:42;8.85;;;6.38;;
9716;SDS011;4897;43.570;27.832;2022-08-19T07:04:13;8.52;;;6.47;;
9716;SDS011;4897;43.570;27.832;2022-08-19T07:06:42;9.82;;;6.53;;
9716;SDS011;4897;43.570;27.832;2022-08-19T07:09:10;12.32;;;6.65;;
9716;SDS011;4897;43.570;27.832;2022-08-19T07:11:45;9.40;;;6.43;;
9716;SDS011;4897;43.570;27.832;2022-08-19T07:14:14;8.68;;;5.80;;
9716;SDS011;4897;43.570;27.832;2022-08-19T07:16:45;10.55;;;6.10;;
9716;SDS011;4897;43.570;27.832;2022-08-19T07:19:13;8.88;;;5.90;;
9716;SDS011;4897;43.570;27.832;2022-08-19T07:21:40;9.48;;;6.43;;
9716;SDS011;4897;43.570;27.832;2022-08-19T07:24:10;7.50;;;5.60;;
9716;SDS011;4897;43.570;27.832;2022-08-19T07:26:38;13.57;;;6.63;;
9716;SDS011;4897;43.570;27.832;2022-08-19T07:29:08;10.70;;;6.22;;
9716;SDS011;4897;43.570;27.832;2022-08-19T07:31:36;9.13;;;5.75;;
9716;SDS011;4897;43.570;27.832;2022-08-19T07:34:04;14.38;;;6.28;;
9716;SDS011;4897;43.570;27.832;2022-08-19T07:36:34;8.90;;;5.88;;
9716;SDS011;4897;43.570;27.832;2022-08-19T07:39:04;7.50;;;5.45;;
9716;SDS011;4897;43.570;27.832;2022-08-19T07:41:36;9.10;;;5.93;;
9716;SDS011;4897;43.570;27.832;2022-08-19T07:44:08;11.45;;;5.93;;
9716;SDS011;4897;43.570;27.832;2022-08-19T07:46:39;7.72;;;6.15;;
9716;SDS011;4897;43.570;27.832;2022-08-19T07:54:20;8.43;;;6.63;;
9716;SDS011;4897;43.570;27.832;2022-08-19T08:13:52;13.32;;;5.68;;
9716;SDS011;4897;43.570;27.832;2022-08-19T08:16:19;10.77;;;5.72;;
9716;SDS011;4897;43.570;27.832;2022-08-19T08:18:46;13.45;;;6.10;;
9716;SDS011;4897;43.570;27.832;2022-08-19T08:21:13;7.32;;;5.53;;
9716;SDS011;4897;43.570;27.832;2022-08-19T08:23:42;9.85;;;5.38;;
9716;SDS011;4897;43.570;27.832;2022-08-19T08:26:09;12.32;;;5.72;;
9716;SDS011;4897;43.570;27.832;2022-08-19T08:28:42;9.13;;;5.30;;
9716;SDS011;4897;43.570;27.832;2022-08-19T08:31:14;10.20;;;5.53;;
9716;SDS011;4897;43.570;27.832;2022-08-19T08:33:41;12.70;;;5.78;;
9716;SDS011;4897;43.570;27.832;2022-08-19T08:36:13;9.57;;;5.50;;
9716;SDS011;4897;43.570;27.832;2022-08-19T08:38:40;14.15;;;5.78;;
9716;SDS011;4897;43.570;27.832;2022-08-19T08:41:12;11.05;;;6.20;;
9716;SDS011;4897;43.570;27.832;2022-08-19T08:43:49;15.15;;;6.20;;
9716;SDS011;4897;43.570;27.832;2022-08-19T08:46:21;15.38;;;6.20;;
9716;SDS011;4897;43.570;27.832;2022-08-19T08:48:54;16.55;;;5.68;;
9716;SDS011;4897;43.570;27.832;2022-08-19T08:51:25;8.45;;;5.80;;
9716;SDS011;4897;43.570;27.832;2022-08-19T08:53:56;11.40;;;6.20;;
9716;SDS011;4897;43.570;27.832;2022-08-19T08:56:23;7.10;;;5.50;;
9716;SDS011;4897;43.570;27.832;2022-08-19T08:58:57;15.25;;;6.05;;
9716;SDS011;4897;43.570;27.832;2022-08-19T09:01:30;11.30;;;6.20;;
9716;SDS011;4897;43.570;27.832;2022-08-19T09:04:02;21.00;;;6.63;;
9716;SDS011;4897;43.570;27.832;2022-08-19T09:06:32;11.80;;;5.90;;
9716;SDS011;4897;43.570;27.832;2022-08-19T09:09:09;12.32;;;8.30;;
9716;SDS011;4897;43.570;27.832;2022-08-19T09:11:47;8.93;;;5.70;;
9716;SDS011;4897;43.570;27.832;2022-08-19T09:14:34;7.65;;;5.40;;
9716;SDS011;4897;43.570;27.832;2022-08-19T09:17:08;11.30;;;5.60;;
9716;SDS011;4897;43.570;27.832;2022-08-19T09:19:36;8.70;;;5.30;;
9716;SDS011;4897;43.570;27.832;2022-08-19T09:22:16;12.68;;;5.55;;
9716;SDS011;4897;43.570;27.832;2022-08-19T09:24:46;7.10;;;5.20;;
9716;SDS011;4897;43.570;27.832;2022-08-19T09:27:14;12.15;;;5.00;;
9716;SDS011;4897;43.570;27.832;2022-08-19T09:29:41;8.23;;;5.50;;
9716;SDS011;4897;43.570;27.832;2022-08-19T09:32:15;14.82;;;5.60;;
9716;SDS011;4897;43.570;27.832;2022-08-19T09:34:44;9.90;;;5.72;;
9716;SDS011;4897;43.570;27.832;2022-08-19T09:37:13;14.43;;;6.00;;
9716;SDS011;4897;43.570;27.832;2022-08-19T09:39:40;7.57;;;4.70;;
9716;SDS011;4897;43.570;27.832;2022-08-19T09:42:09;11.68;;;5.40;;
9716;SDS011;4897;43.570;27.832;2022-08-19T09:44:39;23.80;;;5.82;;
9716;SDS011;4897;43.570;27.832;2022-08-19T09:47:10;10.00;;;4.75;;
9716;SDS011;4897;43.570;27.832;2022-08-19T09:49:42;7.90;;;4.93;;
9716;SDS011;4897;43.570;27.832;2022-08-19T09:52:10;11.70;;;4.97;;
9716;SDS011;4897;43.570;27.832;2022-08-19T09:54:38;9.20;;;4.55;;
9716;SDS011;4897;43.570;27.832;2022-08-19T09:57:06;9.88;;;4.78;;
9716;SDS011;4897;43.570;27.832;2022-08-19T09:59:33;17.80;;;4.70;;
9716;SDS011;4897;43.570;27.832;2022-08-19T10:02:00;7.35;;;5.05;;
9716;SDS011;4897;43.570;27.832;2022-08-19T10:04:27;6.80;;;4.57;;
9716;SDS011;4897;43.570;27.832;2022-08-19T10:07:20;10.23;;;4.82;;
9716;SDS011;4897;43.570;27.832;2022-08-19T10:09:49;16.40;;;5.20;;
9716;SDS011;4897;43.570;27.832;2022-08-19T10:12:16;12.02;;;4.32;;
9716;SDS011;4897;43.570;27.832;2022-08-19T10:14:43;11.68;;;4.15;;
9716;SDS011;4897;43.570;27.832;2022-08-19T10:17:13;6.95;;;4.63;;
9716;SDS011;4897;43.570;27.832;2022-08-19T10:19:40;13.88;;;4.55;;
9716;SDS011;4897;43.570;27.832;2022-08-19T10:22:07;10.85;;;4.35;;
9716;SDS011;4897;43.570;27.832;2022-08-19T10:24:37;8.23;;;4.50;;
9716;SDS011;4897;43.570;27.832;2022-08-19T10:27:04;7.80;;;4.70;;
9716;SDS011;4897;43.570;27.832;2022-08-19T10:29:32;10.73;;;4.30;;
9716;SDS011;4897;43.570;27.832;2022-08-19T10:32:00;7.95;;;4.25;;
9716;SDS011;4897;43.570;27.832;2022-08-19T10:34:31;11.40;;;4.35;;
9716;SDS011;4897;43.570;27.832;2022-08-19T10:36:58;10.82;;;4.75;;
9716;SDS011;4897;43.570;27.832;2022-08-19T10:39:30;9.80;;;4.28;;
9716;SDS011;4897;43.570;27.832;2022-08-19T10:41:59;6.38;;;4.10;;
9716;SDS011;4897;43.570;27.832;2022-08-19T10:44:31;9.30;;;4.25;;
9716;SDS011;4897;43.570;27.832;2022-08-19T10:47:00;10.82;;;4.30;;
9716;SDS011;4897;43.570;27.832;2022-08-19T10:49:28;9.85;;;4.07;;
9716;SDS011;4897;43.570;27.832;2022-08-19T10:52:16;8.65;;;4.35;;
9716;SDS011;4897;43.570;27.832;2022-08-19T10:55:00;9.80;;;3.92;;
9716;SDS011;4897;43.570;27.832;2022-08-19T10:57:54;10.30;;;4.22;;
9716;SDS011;4897;43.570;27.832;2022-08-19T11:00:24;8.35;;;4.15;;
9716;SDS011;4897;43.570;27.832;2022-08-19T11:02:56;7.30;;;3.97;;
9716;SDS011;4897;43.570;27.832;2022-08-19T11:05:25;9.82;;;4.53;;
9716;SDS011;4897;43.570;27.832;2022-08-19T11:07:52;8.25;;;3.78;;
9716;SDS011;4897;43.570;27.832;2022-08-19T11:10:24;6.55;;;4.43;;
9716;SDS011;4897;43.570;27.832;2022-08-19T11:12:58;14.80;;;4.43;;
9716;SDS011;4897;43.570;27.832;2022-08-19T11:15:25;16.52;;;4.47;;
9716;SDS011;4897;43.570;27.832;2022-08-19T11:17:57;21.27;;;4.82;;
9716;SDS011;4897;43.570;27.832;2022-08-19T11:20:24;6.93;;;3.97;;
9716;SDS011;4897;43.570;27.832;2022-08-19T11:22:53;9.85;;;5.13;;
9716;SDS011;4897;43.570;27.832;2022-08-19T11:25:20;9.25;;;4.05;;
9716;SDS011;4897;43.570;27.832;2022-08-19T11:27:48;15.55;;;4.13;;
9716;SDS011;4897;43.570;27.832;2022-08-19T11:30:20;9.30;;;4.40;;
9716;SDS011;4897;43.570;27.832;2022-08-19T11:32:47;11.70;;;3.58;;
9716;SDS011;4897;43.570;27.832;2022-08-19T11:35:17;9.23;;;4.15;;
9716;SDS011;4897;43.570;27.832;2022-08-19T11:37:45;5.70;;;3.92;;
9716;SDS011;4897;43.570;27.832;2022-08-19T11:40:13;6.60;;;4.05;;
9716;SDS011;4897;43.570;27.832;2022-08-19T11:42:40;9.10;;;4.53;;
9716;SDS011;4897;43.570;27.832;2022-08-19T11:45:24;8.70;;;4.00;;
9716;SDS011;4897;43.570;27.832;2022-08-19T11:47:55;6.43;;;3.58;;
9716;SDS011;4897;43.570;27.832;2022-08-19T11:50:22;6.97;;;3.97;;
9716;SDS011;4897;43.570;27.832;2022-08-19T11:52:49;7.03;;;3.83;;
9716;SDS011;4897;43.570;27.832;2022-08-19T11:55:16;9.73;;;4.05;;
9716;SDS011;4897;43.570;27.832;2022-08-19T11:57:45;9.55;;;4.32;;
9716;SDS011;4897;43.570;27.832;2022-08-19T12:00:12;10.15;;;4.72;;
9716;SDS011;4897;43.570;27.832;2022-08-19T12:02:41;6.25;;;3.90;;
9716;SDS011;4897;43.570;27.832;2022-08-19T12:05:08;8.30;;;4.20;;
9716;SDS011;4897;43.570;27.832;2022-08-19T12:07:37;10.20;;;4.55;;
9716;SDS011;4897;43.570;27.832;2022-08-19T12:10:06;6.15;;;3.90;;
9716;SDS011;4897;43.570;27.832;2022-08-19T12:12:33;7.63;;;4.32;;
9716;SDS011;4897;43.570;27.832;2022-08-19T12:15:05;11.73;;;4.45;;
9716;SDS011;4897;43.570;27.832;2022-08-19T12:17:33;9.13;;;3.97;;
9716;SDS011;4897;43.570;27.832;2022-08-19T12:20:05;7.78;;;3.78;;
9716;SDS011;4897;43.570;27.832;2022-08-19T12:22:35;5.35;;;3.67;;
9716;SDS011;4897;43.570;27.832;2022-08-19T12:25:03;6.65;;;4.05;;
9716;SDS011;4897;43.570;27.832;2022-08-19T12:27:31;9.48;;;4.32;;
9716;SDS011;4897;43.570;27.832;2022-08-19T12:30:07;12.50;;;4.38;;
9716;SDS011;4897;43.570;27.832;2022-08-19T12:32:35;10.50;;;4.45;;
9716;SDS011;4897;43.570;27.832;2022-08-19T12:35:06;12.13;;;4.75;;
9716;SDS011;4897;43.570;27.832;2022-08-19T12:37:34;9.57;;;4.60;;
9716;SDS011;4897;43.570;27.832;2022-08-19T12:40:02;7.90;;;4.15;;
9716;SDS011;4897;43.570;27.832;2022-08-19T12:42:30;4.88;;;3.50;;
9716;SDS011;4897;43.570;27.832;2022-08-19T12:44:57;8.73;;;3.67;;
9716;SDS011;4897;43.570;27.832;2022-08-19T12:47:24;13.07;;;3.30;;
9716;SDS011;4897;43.570;27.832;2022-08-19T12:49:52;6.75;;;3.08;;
9716;SDS011;4897;43.570;27.832;2022-08-19T12:59:17;6.15;;;3.38;;
9716;SDS011;4897;43.570;27.832;2022-08-19T13:01:47;10.57;;;3.47;;
9716;SDS011;4897;43.570;27.832;2022-08-19T13:04:14;11.13;;;3.67;;
9716;SDS011;4897;43.570;27.832;2022-08-19T13:06:41;7.22;;;3.78;;
9716;SDS011;4897;43.570;27.832;2022-08-19T13:09:15;8.25;;;3.33;;
9716;SDS011;4897;43.570;27.832;2022-08-19T13:11:42;14.60;;;3.72;;
9716;SDS011;4897;43.570;27.832;2022-08-19T13:14:10;8.43;;;3.60;;
9716;SDS011;4897;43.570;27.832;2022-08-19T13:16:38;13.20;;;3.78;;
9716;SDS011;4897;43.570;27.832;2022-08-19T13:19:05;9.48;;;3.75;;
9716;SDS011;4897;43.570;27.832;2022-08-19T13:21:35;11.18;;;3.75;;
9716;SDS011;4897;43.570;27.832;2022-08-19T13:24:03;7.47;;;3.22;;
9716;SDS011;4897;43.570;27.832;2022-08-19T13:26:30;8.05;;;6.50;;
9716;SDS011;4897;43.570;27.832;2022-08-19T13:28:57;9.00;;;3.88;;
9716;SDS011;4897;43.570;27.832;2022-08-19T13:31:42;7.10;;;4.20;;
9716;SDS011;4897;43.570;27.832;2022-08-19T13:34:28;11.90;;;4.47;;
9716;SDS011;4897;43.570;27.832;2022-08-19T13:36:57;6.32;;;3.80;;
9716;SDS011;4897;43.570;27.832;2022-08-19T13:39:28;8.50;;;4.15;;
9716;SDS011;4897;43.570;27.832;2022-08-19T13:41:56;7.45;;;4.18;;
9716;SDS011;4897;43.570;27.832;2022-08-19T13:44:26;11.63;;;3.88;;
9716;SDS011;4897;43.570;27.832;2022-08-19T13:46:59;19.98;;;4.22;;
9716;SDS011;4897;43.570;27.832;2022-08-19T13:49:30;10.38;;;4.00;;
9716;SDS011;4897;43.570;27.832;2022-08-19T13:52:01;9.40;;;4.15;;
9716;SDS011;4897;43.570;27.832;2022-08-19T13:54:32;9.85;;;4.18;;
9716;SDS011;4897;43.570;27.832;2022-08-19T13:56:59;5.88;;;3.92;;
9716;SDS011;4897;43.570;27.832;2022-08-19T13:59:25;8.77;;;3.80;;
9716;SDS011;4897;43.570;27.832;2022-08-19T14:01:56;6.75;;;3.38;;
9716;SDS011;4897;43.570;27.832;2022-08-19T14:04:30;6.43;;;3.38;;
9716;SDS011;4897;43.570;27.832;2022-08-19T14:06:57;9.05;;;3.28;;
9716;SDS011;4897;43.570;27.832;2022-08-19T14:09:34;6.22;;;3.15;;
9716;SDS011;4897;43.570;27.832;2022-08-19T14:12:52;6.78;;;3.58;;
9716;SDS011;4897;43.570;27.832;2022-08-19T14:15:20;11.18;;;3.45;;
9716;SDS011;4897;43.570;27.832;2022-08-19T14:17:51;8.82;;;3.80;;
9716;SDS011;4897;43.570;27.832;2022-08-19T14:20:19;7.38;;;3.88;;
9716;SDS011;4897;43.570;27.832;2022-08-19T14:22:48;11.52;;;4.32;;
9716;SDS011;4897;43.570;27.832;2022-08-19T14:25:18;15.55;;;4.32;;
9716;SDS011;4897;43.570;27.832;2022-08-19T14:27:50;10.38;;;4.57;;
9716;SDS011;4897;43.570;27.832;2022-08-19T14:30:21;8.18;;;4.20;;
9716;SDS011;4897;43.570;27.832;2022-08-19T14:32:52;10.77;;;4.50;;
9716;SDS011;4897;43.570;27.832;2022-08-19T14:35:19;8.38;;;4.40;;
9716;SDS011;4897;43.570;27.832;2022-08-19T14:37:47;6.97;;;4.38;;
9716;SDS011;4897;43.570;27.832;2022-08-19T14:40:16;12.02;;;4.90;;
9716;SDS011;4897;43.570;27.832;2022-08-19T14:42:47;8.68;;;4.28;;
9716;SDS011;4897;43.570;27.832;2022-08-19T14:45:14;7.10;;;4.68;;
9716;SDS011;4897;43.570;27.832;2022-08-19T14:47:41;8.23;;;4.80;;
9716;SDS011;4897;43.570;27.832;2022-08-19T14:50:10;8.27;;;5.00;;
9716;SDS011;4897;43.570;27.832;2022-08-19T14:52:44;5.68;;;4.85;;
9716;SDS011;4897;43.570;27.832;2022-08-19T14:55:14;10.70;;;7.20;;
9716;SDS011;4897;43.570;27.832;2022-08-19T14:57:43;10.25;;;6.30;;
9716;SDS011;4897;43.570;27.832;2022-08-19T15:00:11;11.00;;;6.07;;
9716;SDS011;4897;43.570;27.832;2022-08-19T15:02:40;6.32;;;4.95;;
9716;SDS011;4897;43.570;27.832;2022-08-19T15:05:10;13.10;;;5.53;;
9716;SDS011;4897;43.570;27.832;2022-08-19T15:07:38;9.05;;;6.93;;
9716;SDS011;4897;43.570;27.832;2022-08-19T15:10:06;13.13;;;11.30;;
9716;SDS011;4897;43.570;27.832;2022-08-19T15:12:36;11.40;;;5.85;;
9716;SDS011;4897;43.570;27.832;2022-08-19T15:15:08;13.95;;;5.65;;
9716;SDS011;4897;43.570;27.832;2022-08-19T15:17:39;9.07;;;5.32;;
9716;SDS011;4897;43.570;27.832;2022-08-19T15:20:07;12.68;;;5.32;;
9716;SDS011;4897;43.570;27.832;2022-08-19T15:22:36;8.43;;;5.28;;
9716;SDS011;4897;43.570;27.832;2022-08-19T15:25:05;9.80;;;5.18;;
9716;SDS011;4897;43.570;27.832;2022-08-19T15:27:34;10.40;;;5.15;;
9716;SDS011;4897;43.570;27.832;2022-08-19T15:30:09;8.73;;;4.93;;
9716;SDS011;4897;43.570;27.832;2022-08-19T15:32:37;10.48;;;5.30;;
9716;SDS011;4897;43.570;27.832;2022-08-19T15:35:24;9.27;;;5.25;;
9716;SDS011;4897;43.570;27.832;2022-08-19T15:38:06;7.93;;;5.00;;